sensor_id;sensor_type;location;lat;lon;timestamp;pressure;altitude;pressure_sealevel;temperature;humidity
21902;BME280;11115;46.038;14.612;2023-04-09T00:01:35;98935.22;;;6.08;100.00
21902;BME280;11115;46.038;14.612;2023-04-09T00:04:11;98928.81;;;5.93;100.00
21902;BME280;11115;46.038;14.612;2023-04-09T00:06:50;98933.72;;;5.86;100.00
21902;BME280;11115;46.038;14.612;2023-04-09T00:09:22;98889.84;;;5.43;100.00
21902;BME280;11115;46.038;14.612;2023-04-09T00:11:52;98943.94;;;5.95;100.00
21902;BME280;11115;46.038;14.612;2023-04-09T00:14:23;98936.75;;;5.89;100.00
21902;BME280;11115;46.038;14.612;2023-04-09T00:16:54;98934.09;;;6.09;100.00
21902;BME280;11115;46.038;14.612;2023-04-09T00:19:23;98928.31;;;6.01;100.00
21902;BME280;11115;46.038;14.612;2023-04-09T00:21:57;98929.69;;;5.98;100.00
21902;BME280;11115;46.038;14.612;2023-04-09T00:24:25;98933.97;;;5.84;100.00
21902;BME280;11115;46.038;14.612;2023-04-09T00:26:56;98937.53;;;5.79;100.00
21902;BME280;11115;46.038;14.612;2023-04-09T00:29:30;98937.19;;;5.71;100.00
21902;BME280;11115;46.038;14.612;2023-04-09T00:32:03;98944.34;;;5.72;100.00
21902;BME280;11115;46.038;14.612;2023-04-09T00:34:34;98939.06;;;5.60;100.00
21902;BME280;11115;46.038;14.612;2023-04-09T00:37:10;98938.81;;;5.67;100.00
21902;BME280;11115;46.038;14.612;2023-04-09T00:39:44;98913.22;;;5.56;100.00
21902;BME280;11115;46.038;14.612;2023-04-09T00:42:16;98944.91;;;5.74;100.00
21902;BME280;11115;46.038;14.612;2023-04-09T00:44:46;98937.75;;;5.73;100.00
21902;BME280;11115;46.038;14.612;2023-04-09T00:47:20;98943.50;;;5.66;100.00
21902;BME280;11115;46.038;14.612;2023-04-09T00:49:53;98931.97;;;5.69;100.00
21902;BME280;11115;46.038;14.612;2023-04-09T00:52:27;98932.59;;;5.39;100.00
21902;BME280;11115;46.038;14.612;2023-04-09T00:55:11;98953.56;;;5.56;100.00
21902;BME280;11115;46.038;14.612;2023-04-09T00:57:46;98953.28;;;5.57;100.00
21902;BME280;11115;46.038;14.612;2023-04-09T01:00:22;98946.78;;;5.63;100.00
21902;BME280;11115;46.038;14.612;2023-04-09T01:02:55;98945.72;;;5.74;100.00
21902;BME280;11115;46.038;14.612;2023-04-09T01:05:53;98942.91;;;5.59;100.00
21902;BME280;11115;46.038;14.612;2023-04-09T01:15:33;98945.56;;;5.44;100.00
21902;BME280;11115;46.038;14.612;2023-04-09T01:18:27;98943.56;;;5.34;100.00
21902;BME280;11115;46.038;14.612;2023-04-09T01:21:20;98939.69;;;5.30;100.00
21902;BME280;11115;46.038;14.612;2023-04-09T01:24:39;98942.16;;;5.32;100.00
21902;BME280;11115;46.038;14.612;2023-04-09T01:30:42;98925.78;;;5.05;100.00
21902;BME280;11115;46.038;14.612;2023-04-09T01:33:23;98945.25;;;5.03;100.00
21902;BME280;11115;46.038;14.612;2023-04-09T01:35:58;98947.75;;;5.10;100.00
21902;BME280;11115;46.038;14.612;2023-04-09T01:38:36;98898.53;;;4.93;100.00
21902;BME280;11115;46.038;14.612;2023-04-09T01:41:14;98946.94;;;5.09;100.00
21902;BME280;11115;46.038;14.612;2023-04-09T01:43:50;98943.56;;;5.34;100.00
21902;BME280;11115;46.038;14.612;2023-04-09T01:46:21;98942.41;;;5.25;100.00
21902;BME280;11115;46.038;14.612;2023-04-09T01:49:09;98941.47;;;5.14;100.00
21902;BME280;11115;46.038;14.612;2023-04-09T01:51:47;98936.00;;;5.14;100.00
21902;BME280;11115;46.038;14.612;2023-04-09T01:54:18;98947.72;;;5.05;100.00
21902;BME280;11115;46.038;14.612;2023-04-09T01:56:50;98948.72;;;4.94;100.00
21902;BME280;11115;46.038;14.612;2023-04-09T01:59:27;98943.91;;;5.06;100.00
21902;BME280;11115;46.038;14.612;2023-04-09T02:02:25;98937.31;;;5.07;100.00
21902;BME280;11115;46.038;14.612;2023-04-09T02:05:03;98946.63;;;5.06;100.00
21902;BME280;11115;46.038;14.612;2023-04-09T02:07:44;98946.91;;;5.04;100.00
21902;BME280;11115;46.038;14.612;2023-04-09T02:10:26;98945.56;;;5.07;100.00
21902;BME280;11115;46.038;14.612;2023-04-09T02:13:03;98940.63;;;5.09;100.00
21902;BME280;11115;46.038;14.612;2023-04-09T02:15:37;98932.41;;;5.09;100.00
21902;BME280;11115;46.038;14.612;2023-04-09T02:18:25;98930.31;;;5.21;100.00
21902;BME280;11115;46.038;14.612;2023-04-09T02:20:56;98935.31;;;4.97;100.00
21902;BME280;11115;46.038;14.612;2023-04-09T02:23:28;98935.84;;;4.94;100.00
21902;BME280;11115;46.038;14.612;2023-04-09T02:26:02;98917.53;;;4.68;100.00
21902;BME280;11115;46.038;14.612;2023-04-09T02:28:31;98942.91;;;4.85;100.00
21902;BME280;11115;46.038;14.612;2023-04-09T02:31:17;98939.63;;;4.88;100.00
21902;BME280;11115;46.038;14.612;2023-04-09T02:33:53;98934.31;;;4.76;100.00
21902;BME280;11115;46.038;14.612;2023-04-09T02:36:22;98947.03;;;4.87;100.00
21902;BME280;11115;46.038;14.612;2023-04-09T02:38:55;98941.28;;;4.89;100.00
21902;BME280;11115;46.038;14.612;2023-04-09T02:41:26;98933.50;;;4.81;100.00
21902;BME280;11115;46.038;14.612;2023-04-09T02:44:02;98941.03;;;4.91;100.00
21902;BME280;11115;46.038;14.612;2023-04-09T02:46:32;98919.97;;;4.64;100.00
21902;BME280;11115;46.038;14.612;2023-04-09T02:49:05;98929.91;;;4.75;100.00
21902;BME280;11115;46.038;14.612;2023-04-09T02:51:36;98932.34;;;4.72;100.00
21902;BME280;11115;46.038;14.612;2023-04-09T02:54:08;98930.31;;;4.62;100.00
21902;BME280;11115;46.038;14.612;2023-04-09T02:56:44;98933.44;;;4.71;100.00
21902;BME280;11115;46.038;14.612;2023-04-09T02:59:13;98914.78;;;4.68;100.00
21902;BME280;11115;46.038;14.612;2023-04-09T03:01:57;98929.56;;;4.67;100.00
21902;BME280;11115;46.038;14.612;2023-04-09T03:04:39;98917.72;;;4.61;100.00
21902;BME280;11115;46.038;14.612;2023-04-09T03:07:24;98919.97;;;4.64;100.00
21902;BME280;11115;46.038;14.612;2023-04-09T03:10:08;98920.97;;;4.58;100.00
21902;BME280;11115;46.038;14.612;2023-04-09T03:12:40;98915.19;;;4.54;100.00
21902;BME280;11115;46.038;14.612;2023-04-09T03:15:11;98924.19;;;4.50;100.00
21902;BME280;11115;46.038;14.612;2023-04-09T03:17:42;98905.63;;;4.30;100.00
21902;BME280;11115;46.038;14.612;2023-04-09T03:20:16;98925.81;;;4.46;100.00
21902;BME280;11115;46.038;14.612;2023-04-09T03:22:51;98922.53;;;4.49;100.00
21902;BME280;11115;46.038;14.612;2023-04-09T03:25:39;98927.59;;;4.62;100.00
21902;BME280;11115;46.038;14.612;2023-04-09T03:28:17;98921.34;;;4.67;100.00
21902;BME280;11115;46.038;14.612;2023-04-09T03:30:53;98923.97;;;4.56;100.00
21902;BME280;11115;46.038;14.612;2023-04-09T03:33:28;98922.75;;;4.69;100.00
21902;BME280;11115;46.038;14.612;2023-04-09T03:35:59;98927.09;;;4.65;100.00
21902;BME280;11115;46.038;14.612;2023-04-09T03:39:03;98926.53;;;4.63;100.00
21902;BME280;11115;46.038;14.612;2023-04-09T03:41:41;98924.63;;;4.64;100.00
21902;BME280;11115;46.038;14.612;2023-04-09T03:44:16;98920.25;;;4.41;100.00
21902;BME280;11115;46.038;14.612;2023-04-09T03:47:10;98927.03;;;4.60;100.00
21902;BME280;11115;46.038;14.612;2023-04-09T03:49:51;98928.84;;;4.49;100.00
21902;BME280;11115;46.038;14.612;2023-04-09T03:52:24;98925.16;;;4.39;100.00
21902;BME280;11115;46.038;14.612;2023-04-09T03:55:16;98914.50;;;4.42;100.00
21902;BME280;11115;46.038;14.612;2023-04-09T03:57:44;98922.03;;;4.52;100.00
21902;BME280;11115;46.038;14.612;2023-04-09T04:00:19;98919.97;;;4.64;100.00
21902;BME280;11115;46.038;14.612;2023-04-09T04:03:17;98927.81;;;4.55;100.00
21902;BME280;11115;46.038;14.612;2023-04-09T04:06:07;98926.97;;;4.55;100.00
21902;BME280;11115;46.038;14.612;2023-04-09T04:08:51;98929.56;;;4.67;100.00
21902;BME280;11115;46.038;14.612;2023-04-09T04:11:32;98932.75;;;4.58;100.00
21902;BME280;11115;46.038;14.612;2023-04-09T04:14:03;98933.28;;;4.55;100.00
21902;BME280;11115;46.038;14.612;2023-04-09T04:16:47;98933.81;;;4.52;100.00
21902;BME280;11115;46.038;14.612;2023-04-09T04:19:27;98931.34;;;4.51;100.00
21902;BME280;11115;46.038;14.612;2023-04-09T04:22:06;98929.19;;;4.58;100.00
21902;BME280;11115;46.038;14.612;2023-04-09T04:24:40;98933.13;;;4.40;100.00
21902;BME280;11115;46.038;14.612;2023-04-09T04:27:17;98931.34;;;4.51;100.00
21902;BME280;11115;46.038;14.612;2023-04-09T04:29:47;98925.91;;;4.56;100.00
21902;BME280;11115;46.038;14.612;2023-04-09T04:32:43;98927.34;;;4.37;100.00
21902;BME280;11115;46.038;14.612;2023-04-09T04:35:17;98937.25;;;4.43;100.00
21902;BME280;11115;46.038;14.612;2023-04-09T04:37:55;98918.28;;;4.36;100.00
21902;BME280;11115;46.038;14.612;2023-04-09T04:40:45;98932.72;;;4.53;100.00
21902;BME280;11115;46.038;14.612;2023-04-09T04:43:16;98936.69;;;4.41;100.00
21902;BME280;11115;46.038;14.612;2023-04-09T04:45:50;98916.28;;;4.26;100.00
21902;BME280;11115;46.038;14.612;2023-04-09T04:48:27;98938.34;;;4.42;100.00
21902;BME280;11115;46.038;14.612;2023-04-09T04:51:00;98941.59;;;4.39;100.00
21902;BME280;11115;46.038;14.612;2023-04-09T04:53:37;98957.59;;;4.47;100.00
21902;BME280;11115;46.038;14.612;2023-04-09T04:56:13;98951.34;;;4.51;100.00
21902;BME280;11115;46.038;14.612;2023-04-09T04:58:54;98956.09;;;4.61;100.00
21902;BME280;11115;46.038;14.612;2023-04-09T05:01:28;98953.16;;;4.68;100.00
21902;BME280;11115;46.038;14.612;2023-04-09T05:04:01;98957.53;;;4.69;100.00
21902;BME280;11115;46.038;14.612;2023-04-09T05:06:34;98956.72;;;4.68;100.00
21902;BME280;11115;46.038;14.612;2023-04-09T05:09:08;98953.75;;;4.75;100.00
21902;BME280;11115;46.038;14.612;2023-04-09T05:11:56;98953.88;;;4.85;100.00
21902;BME280;11115;46.038;14.612;2023-04-09T05:14:29;98953.97;;;4.68;100.00
21902;BME280;11115;46.038;14.612;2023-04-09T05:17:06;98954.34;;;4.82;100.00
21902;BME280;11115;46.038;14.612;2023-04-09T05:19:42;98924.97;;;4.72;100.00
21902;BME280;11115;46.038;14.612;2023-04-09T05:22:16;98948.03;;;5.08;100.00
21902;BME280;11115;46.038;14.612;2023-04-09T05:24:47;98948.56;;;5.05;100.00
21902;BME280;11115;46.038;14.612;2023-04-09T05:27:20;98937.34;;;5.12;100.00
21902;BME280;11115;46.038;14.612;2023-04-09T05:30:10;98952.56;;;5.30;100.00
21902;BME280;11115;46.038;14.612;2023-04-09T05:32:48;98957.56;;;5.38;100.00
21902;BME280;11115;46.038;14.612;2023-04-09T05:35:20;98953.66;;;5.29;100.00
21902;BME280;11115;46.038;14.612;2023-04-09T05:37:52;98966.03;;;5.31;100.00
21902;BME280;11115;46.038;14.612;2023-04-09T05:40:38;98967.22;;;5.40;100.00
21902;BME280;11115;46.038;14.612;2023-04-09T05:43:11;98971.59;;;5.41;100.00
21902;BME280;11115;46.038;14.612;2023-04-09T05:45:42;98974.41;;;5.52;100.00
21902;BME280;11115;46.038;14.612;2023-04-09T05:48:14;98972.56;;;5.62;100.00
21902;BME280;11115;46.038;14.612;2023-04-09T05:50:51;98971.75;;;5.67;100.00
21902;BME280;11115;46.038;14.612;2023-04-09T05:53:28;98978.94;;;5.78;100.00
21902;BME280;11115;46.038;14.612;2023-04-09T05:56:02;98973.41;;;5.68;100.00
21902;BME280;11115;46.038;14.612;2023-04-09T05:58:47;98983.31;;;5.74;100.00
21902;BME280;11115;46.038;14.612;2023-04-09T06:01:27;98960.72;;;5.57;100.00
21902;BME280;11115;46.038;14.612;2023-04-09T06:04:12;98983.13;;;5.86;100.00
21902;BME280;11115;46.038;14.612;2023-04-09T06:06:52;98984.63;;;5.98;100.00
21902;BME280;11115;46.038;14.612;2023-04-09T06:09:30;98972.00;;;6.07;100.00
21902;BME280;11115;46.038;14.612;2023-04-09T06:12:03;98970.94;;;6.14;100.00
21902;BME280;11115;46.038;14.612;2023-04-09T06:14:43;98975.09;;;6.21;100.00
21902;BME280;11115;46.038;14.612;2023-04-09T06:17:13;98969.88;;;6.25;100.00
21902;BME280;11115;46.038;14.612;2023-04-09T06:19:42;98976.19;;;6.20;100.00
21902;BME280;11115;46.038;14.612;2023-04-09T06:22:15;98957.50;;;6.17;100.00
21902;BME280;11115;46.038;14.612;2023-04-09T06:24:49;98973.19;;;6.22;100.00
21902;BME280;11115;46.038;14.612;2023-04-09T06:27:22;98975.31;;;6.09;100.00
21902;BME280;11115;46.038;14.612;2023-04-09T06:29:56;98976.75;;;6.27;100.00
21902;BME280;11115;46.038;14.612;2023-04-09T06:32:30;98980.94;;;6.40;100.00
21902;BME280;11115;46.038;14.612;2023-04-09T06:35:20;98979.78;;;6.21;100.00
21902;BME280;11115;46.038;14.612;2023-04-09T06:37:51;98978.19;;;6.40;100.00
21902;BME280;11115;46.038;14.612;2023-04-09T06:40:20;98984.19;;;6.32;100.00
21902;BME280;11115;46.038;14.612;2023-04-09T06:42:51;98973.81;;;6.49;100.00
21902;BME280;11115;46.038;14.612;2023-04-09T06:45:38;98955.94;;;6.42;100.00
21902;BME280;11115;46.038;14.612;2023-04-09T06:48:09;98974.41;;;6.56;100.00
21902;BME280;11115;46.038;14.612;2023-04-09T06:50:43;98972.25;;;6.79;100.00
21902;BME280;11115;46.038;14.612;2023-04-09T06:53:16;98969.50;;;6.79;100.00
21902;BME280;11115;46.038;14.612;2023-04-09T06:55:50;98975.28;;;6.77;100.00
21902;BME280;11115;46.038;14.612;2023-04-09T06:58:20;98964.53;;;6.86;100.00
21902;BME280;11115;46.038;14.612;2023-04-09T07:01:07;98969.75;;;6.92;100.00
21902;BME280;11115;46.038;14.612;2023-04-09T07:03:36;98966.50;;;7.06;100.00
21902;BME280;11115;46.038;14.612;2023-04-09T07:06:07;98957.41;;;6.85;100.00
21902;BME280;11115;46.038;14.612;2023-04-09T07:08:40;98960.69;;;6.87;100.00
21902;BME280;11115;46.038;14.612;2023-04-09T07:11:12;98965.97;;;7.14;100.00
21902;BME280;11115;46.038;14.612;2023-04-09T07:13:43;98962.06;;;6.89;100.00
21902;BME280;11115;46.038;14.612;2023-04-09T07:16:15;98972.53;;;6.87;100.00
21902;BME280;11115;46.038;14.612;2023-04-09T07:18:43;98970.91;;;6.96;100.00
21902;BME280;11115;46.038;14.612;2023-04-09T07:21:31;98971.69;;;6.87;100.00
21902;BME280;11115;46.038;14.612;2023-04-09T07:24:04;98972.25;;;6.79;100.00
21902;BME280;11115;46.038;14.612;2023-04-09T07:26:36;98967.03;;;6.92;100.00
21902;BME280;11115;46.038;14.612;2023-04-09T07:29:09;98968.97;;;7.07;100.00
21902;BME280;11115;46.038;14.612;2023-04-09T07:31:42;98972.56;;;7.18;100.00
21902;BME280;11115;46.038;14.612;2023-04-09T07:34:20;98973.66;;;7.42;100.00
21902;BME280;11115;46.038;14.612;2023-04-09T07:36:50;98972.25;;;7.45;100.00
21902;BME280;11115;46.038;14.612;2023-04-09T07:39:28;98953.81;;;7.30;100.00
21902;BME280;11115;46.038;14.612;2023-04-09T07:42:07;98982.19;;;7.36;100.00
21902;BME280;11115;46.038;14.612;2023-04-09T07:44:40;98987.94;;;7.49;100.00
21902;BME280;11115;46.038;14.612;2023-04-09T07:47:12;98963.72;;;7.41;100.00
21902;BME280;11115;46.038;14.612;2023-04-09T07:49:47;98982.69;;;7.63;100.00
21902;BME280;11115;46.038;14.612;2023-04-09T07:52:19;98985.97;;;7.70;100.00
21902;BME280;11115;46.038;14.612;2023-04-09T07:55:03;98954.09;;;7.49;100.00
21902;BME280;11115;46.038;14.612;2023-04-09T07:57:44;98986.53;;;7.77;100.00
21902;BME280;11115;46.038;14.612;2023-04-09T08:00:17;98992.25;;;8.01;100.00
21902;BME280;11115;46.038;14.612;2023-04-09T08:02:58;98988.47;;;7.77;100.00
21902;BME280;11115;46.038;14.612;2023-04-09T08:05:34;98996.47;;;7.68;100.00
21902;BME280;11115;46.038;14.612;2023-04-09T08:08:05;98998.97;;;7.49;100.00
21902;BME280;11115;46.038;14.612;2023-04-09T08:10:36;98994.81;;;7.77;100.00
21902;BME280;11115;46.038;14.612;2023-04-09T08:13:08;99000.03;;;7.69;100.00
21902;BME280;11115;46.038;14.612;2023-04-09T08:15:39;98999.50;;;7.67;100.00
21902;BME280;11115;46.038;14.612;2023-04-09T08:18:11;98985.19;;;7.65;100.00
21902;BME280;11115;46.038;14.612;2023-04-09T08:20:44;98992.81;;;8.03;100.00
21902;BME280;11115;46.038;14.612;2023-04-09T08:23:19;98995.84;;;8.02;100.00
21902;BME280;11115;46.038;14.612;2023-04-09T08:25:48;98993.66;;;7.99;100.00
21902;BME280;11115;46.038;14.612;2023-04-09T08:28:21;98999.50;;;7.51;100.00
21902;BME280;11115;46.038;14.612;2023-04-09T08:30:56;98983.00;;;7.46;100.00
21902;BME280;11115;46.038;14.612;2023-04-09T08:33:29;98995.13;;;7.55;100.00
21902;BME280;11115;46.038;14.612;2023-04-09T08:36:14;98979.13;;;7.57;100.00
21902;BME280;11115;46.038;14.612;2023-04-09T08:38:47;99002.56;;;7.35;100.00
21902;BME280;11115;46.038;14.612;2023-04-09T08:41:24;99001.97;;;7.68;100.00
21902;BME280;11115;46.038;14.612;2023-04-09T08:44:00;99009.41;;;7.63;100.00
21902;BME280;11115;46.038;14.612;2023-04-09T08:46:30;99011.34;;;7.47;100.00
21902;BME280;11115;46.038;14.612;2023-04-09T08:49:07;99006.09;;;7.76;100.00
21902;BME280;11115;46.038;14.612;2023-04-09T08:51:37;98998.69;;;7.46;100.00
21902;BME280;11115;46.038;14.612;2023-04-09T08:54:17;99009.09;;;7.95;100.00
21902;BME280;11115;46.038;14.612;2023-04-09T08:56:53;99011.84;;;8.00;100.00
21902;BME280;11115;46.038;14.612;2023-04-09T08:59:28;99003.75;;;8.23;100.00
21902;BME280;11115;46.038;14.612;2023-04-09T09:02:07;98996.38;;;8.14;100.00
21902;BME280;11115;46.038;14.612;2023-04-09T09:05:06;99005.13;;;8.31;100.00
21902;BME280;11115;46.038;14.612;2023-04-09T09:07:53;99005.03;;;8.57;100.00
21902;BME280;11115;46.038;14.612;2023-04-09T09:10:45;99003.56;;;9.19;100.00
21902;BME280;11115;46.038;14.612;2023-04-09T09:13:21;99008.34;;;9.42;100.00
21902;BME280;11115;46.038;14.612;2023-04-09T09:16:14;99010.97;;;8.84;100.00
21902;BME280;11115;46.038;14.612;2023-04-09T09:18:54;99008.25;;;9.18;100.00
21902;BME280;11115;46.038;14.612;2023-04-09T09:21:28;99002.59;;;8.99;100.00
21902;BME280;11115;46.038;14.612;2023-04-09T09:23:57;99007.97;;;9.20;100.00
21902;BME280;11115;46.038;14.612;2023-04-09T09:26:31;99008.88;;;9.10;100.00
21902;BME280;11115;46.038;14.612;2023-04-09T09:29:07;98984.56;;;8.73;100.00
21902;BME280;11115;46.038;14.612;2023-04-09T09:31:52;99003.19;;;8.27;100.00
21902;BME280;11115;46.038;14.612;2023-04-09T09:34:25;98990.25;;;8.37;100.00
21902;BME280;11115;46.038;14.612;2023-04-09T09:36:56;98974.75;;;8.51;100.00
21902;BME280;11115;46.038;14.612;2023-04-09T09:39:44;98973.28;;;8.64;100.00
21902;BME280;11115;46.038;14.612;2023-04-09T09:42:17;98989.22;;;8.77;100.00
21902;BME280;11115;46.038;14.612;2023-04-09T09:44:49;98988.09;;;8.78;100.00
21902;BME280;11115;46.038;14.612;2023-04-09T09:47:31;98986.41;;;9.56;100.00
21902;BME280;11115;46.038;14.612;2023-04-09T09:50:05;98978.84;;;9.37;100.00
21902;BME280;11115;46.038;14.612;2023-04-09T09:52:44;98984.28;;;9.48;100.00
21902;BME280;11115;46.038;14.612;2023-04-09T09:55:15;98976.59;;;9.73;100.00
21902;BME280;11115;46.038;14.612;2023-04-09T09:57:49;98987.81;;;9.82;100.00
21902;BME280;11115;46.038;14.612;2023-04-09T10:00:19;98988.25;;;9.94;100.00
21902;BME280;11115;46.038;14.612;2023-04-09T10:03:09;98978.66;;;10.11;100.00
21902;BME280;11115;46.038;14.612;2023-04-09T10:05:47;98982.50;;;10.15;100.00
21902;BME280;11115;46.038;14.612;2023-04-09T10:08:30;98974.50;;;9.89;100.00
21902;BME280;11115;46.038;14.612;2023-04-09T10:11:05;98973.44;;;10.09;100.00
21902;BME280;11115;46.038;14.612;2023-04-09T10:13:40;98976.31;;;9.99;100.00
21902;BME280;11115;46.038;14.612;2023-04-09T10:16:20;98958.28;;;9.78;100.00
21902;BME280;11115;46.038;14.612;2023-04-09T10:19:11;98976.28;;;9.46;100.00
21902;BME280;11115;46.038;14.612;2023-04-09T10:21:56;98967.50;;;9.05;100.00
21902;BME280;11115;46.038;14.612;2023-04-09T10:24:29;98967.56;;;9.34;100.00
21902;BME280;11115;46.038;14.612;2023-04-09T10:27:10;98954.38;;;9.84;100.00
21902;BME280;11115;46.038;14.612;2023-04-09T10:29:48;98965.47;;;10.02;100.00
21902;BME280;11115;46.038;14.612;2023-04-09T10:32:23;98953.72;;;9.92;100.00
21902;BME280;11115;46.038;14.612;2023-04-09T10:34:59;98961.50;;;10.38;100.00
21902;BME280;11115;46.038;14.612;2023-04-09T10:37:34;98960.16;;;10.35;100.00
21902;BME280;11115;46.038;14.612;2023-04-09T10:40:18;98957.19;;;9.79;100.00
21902;BME280;11115;46.038;14.612;2023-04-09T10:42:54;98955.38;;;10.41;100.00
21902;BME280;11115;46.038;14.612;2023-04-09T10:45:39;98958.06;;;10.27;100.00
21902;BME280;11115;46.038;14.612;2023-04-09T10:48:20;98953.50;;;10.12;100.00
21902;BME280;11115;46.038;14.612;2023-04-09T10:50:56;98959.56;;;10.14;100.00
21902;BME280;11115;46.038;14.612;2023-04-09T10:53:31;98952.94;;;10.58;100.00
21902;BME280;11115;46.038;14.612;2023-04-09T10:56:13;98937.84;;;10.88;100.00
21902;BME280;11115;46.038;14.612;2023-04-09T10:58:44;98940.78;;;11.62;100.00
21902;BME280;11115;46.038;14.612;2023-04-09T11:01:31;98939.63;;;11.49;100.00
21902;BME280;11115;46.038;14.612;2023-04-09T11:04:07;98931.66;;;11.61;100.00
21902;BME280;11115;46.038;14.612;2023-04-09T11:06:39;98936.53;;;11.18;100.00
21902;BME280;11115;46.038;14.612;2023-04-09T11:09:09;98935.16;;;11.02;100.00
21902;BME280;11115;46.038;14.612;2023-04-09T11:12:04;98936.63;;;11.13;100.00
21902;BME280;11115;46.038;14.612;2023-04-09T11:14:35;98923.00;;;11.49;100.00
21902;BME280;11115;46.038;14.612;2023-04-09T11:17:04;98922.25;;;11.11;100.00
21902;BME280;11115;46.038;14.612;2023-04-09T11:19:37;98931.00;;;11.18;100.00
21902;BME280;11115;46.038;14.612;2023-04-09T11:22:19;98928.13;;;11.88;100.00
21902;BME280;11115;46.038;14.612;2023-04-09T11:24:57;98926.69;;;11.91;100.00
21902;BME280;11115;46.038;14.612;2023-04-09T11:27:26;98934.25;;;11.06;100.00
21902;BME280;11115;46.038;14.612;2023-04-09T11:29:56;98931.44;;;10.31;100.00
21902;BME280;11115;46.038;14.612;2023-04-09T11:32:32;98928.81;;;10.63;100.00
21902;BME280;11115;46.038;14.612;2023-04-09T11:35:23;98926.38;;;10.94;100.00
21902;BME280;11115;46.038;14.612;2023-04-09T11:37:58;98927.06;;;11.05;100.00
21902;BME280;11115;46.038;14.612;2023-04-09T11:40:28;98932.13;;;10.18;100.00
21902;BME280;11115;46.038;14.612;2023-04-09T11:43:06;98934.75;;;9.85;100.00
21902;BME280;11115;46.038;14.612;2023-04-09T11:45:43;98929.47;;;9.60;100.00
21902;BME280;11115;46.038;14.612;2023-04-09T11:48:29;98931.91;;;9.66;100.00
21902;BME280;11115;46.038;14.612;2023-04-09T11:50:57;98937.91;;;9.73;100.00
21902;BME280;11115;46.038;14.612;2023-04-09T11:53:36;98941.41;;;9.55;100.00
21902;BME280;11115;46.038;14.612;2023-04-09T11:56:04;98934.47;;;9.58;100.00
21902;BME280;11115;46.038;14.612;2023-04-09T11:59:01;98936.31;;;9.67;100.00
21902;BME280;11115;46.038;14.612;2023-04-09T12:01:34;98935.41;;;10.20;100.00
21902;BME280;11115;46.038;14.612;2023-04-09T12:04:05;98929.53;;;10.50;100.00
21902;BME280;11115;46.038;14.612;2023-04-09T12:06:40;98928.53;;;10.22;100.00
21902;BME280;11115;46.038;14.612;2023-04-09T12:09:14;98910.38;;;10.54;100.00
21902;BME280;11115;46.038;14.612;2023-04-09T12:11:44;98914.50;;;10.94;100.00
21902;BME280;11115;46.038;14.612;2023-04-09T12:14:23;98868.22;;;10.81;100.00
21902;BME280;11115;46.038;14.612;2023-04-09T12:16:57;98913.41;;;11.28;100.00
21902;BME280;11115;46.038;14.612;2023-04-09T12:19:28;98911.09;;;11.48;100.00
21902;BME280;11115;46.038;14.612;2023-04-09T12:22:01;98910.25;;;11.15;100.00
21902;BME280;11115;46.038;14.612;2023-04-09T12:24:30;98906.88;;;11.05;100.00
21902;BME280;11115;46.038;14.612;2023-04-09T12:27:08;98911.53;;;10.72;100.00
21902;BME280;11115;46.038;14.612;2023-04-09T12:29:46;98905.69;;;10.73;100.00
21902;BME280;11115;46.038;14.612;2023-04-09T12:32:19;98914.72;;;10.60;100.00
21902;BME280;11115;46.038;14.612;2023-04-09T12:34:51;98923.47;;;10.48;100.00
21902;BME280;11115;46.038;14.612;2023-04-09T12:37:36;98905.25;;;10.47;100.00
21902;BME280;11115;46.038;14.612;2023-04-09T12:40:10;98911.91;;;10.46;100.00
21902;BME280;11115;46.038;14.612;2023-04-09T12:42:45;98911.97;;;10.41;100.00
21902;BME280;11115;46.038;14.612;2023-04-09T12:45:20;98862.63;;;10.48;100.00
21902;BME280;11115;46.038;14.612;2023-04-09T12:47:50;98907.78;;;10.81;100.00
21902;BME280;11115;46.038;14.612;2023-04-09T12:50:33;98915.41;;;10.89;100.00
21902;BME280;11115;46.038;14.612;2023-04-09T12:53:20;98910.25;;;11.02;100.00
21902;BME280;11115;46.038;14.612;2023-04-09T12:55:50;98910.16;;;11.39;100.00
21902;BME280;11115;46.038;14.612;2023-04-09T12:58:34;98906.31;;;12.50;100.00
21902;BME280;11115;46.038;14.612;2023-04-09T13:01:07;98896.91;;;12.73;100.00
21902;BME280;11115;46.038;14.612;2023-04-09T13:03:52;98886.22;;;13.87;100.00
21902;BME280;11115;46.038;14.612;2023-04-09T13:06:26;98892.00;;;12.93;100.00
21902;BME280;11115;46.038;14.612;2023-04-09T13:09:05;98898.56;;;11.97;100.00
21902;BME280;11115;46.038;14.612;2023-04-09T13:11:48;98901.06;;;11.66;100.00
21902;BME280;11115;46.038;14.612;2023-04-09T13:14:22;98909.63;;;11.37;100.00
21902;BME280;11115;46.038;14.612;2023-04-09T13:17:00;98900.09;;;11.11;100.00
21902;BME280;11115;46.038;14.612;2023-04-09T13:19:32;98853.63;;;10.56;100.00
21902;BME280;11115;46.038;14.612;2023-04-09T13:22:09;98912.31;;;10.34;100.00
21902;BME280;11115;46.038;14.612;2023-04-09T13:24:54;98916.88;;;10.20;100.00
21902;BME280;11115;46.038;14.612;2023-04-09T13:27:31;98923.78;;;9.75;100.00
21902;BME280;11115;46.038;14.612;2023-04-09T13:30:08;98920.56;;;9.68;100.00
21902;BME280;11115;46.038;14.612;2023-04-09T13:32:39;98922.22;;;9.93;100.00
21902;BME280;11115;46.038;14.612;2023-04-09T13:35:18;98928.16;;;10.05;100.00
21902;BME280;11115;46.038;14.612;2023-04-09T13:37:48;98922.41;;;10.25;100.00
21902;BME280;11115;46.038;14.612;2023-04-09T13:40:26;98924.72;;;10.37;100.00
21902;BME280;11115;46.038;14.612;2023-04-09T13:43:12;98891.53;;;10.37;100.00
21902;BME280;11115;46.038;14.612;2023-04-09T13:45:54;98922.16;;;12.08;100.00
21902;BME280;11115;46.038;14.612;2023-04-09T13:48:26;98929.22;;;10.52;100.00